Time;durP1;ratioP1;P1;durP2;ratioP2;P2;SDS_P1;SDS_P2;PMS_P1;PMS_P2;Temp;Humidity;BMP_temperature;BMP_pressure;BME280_temperature;BME280_humidity;BME280_pressure;Samples;Min_cycle;Max_cycle;Signal;HPM_P1;HPM_P2
2022/04/13 00:01:14;;;;;;;10.90;7.70;;;12.30;77.30;;;;;;5108005;28;21260;-85
2022/04/13 00:03:41;;;;;;;12.03;10.23;;;12.30;85.30;;;;;;5108220;28;20770;-85
2022/04/13 00:06:08;;;;;;;12.23;9.23;;;12.30;76.80;;;;;;5108135;28;21195;-85
2022/04/13 00:08:35;;;;;;;15.17;9.80;;;12.30;76.50;;;;;;5111892;28;20670;-86
2022/04/13 00:11:03;;;;;;;15.23;9.60;;;12.40;91.40;;;;;;5111655;28;21162;-85
2022/04/13 00:13:31;;;;;;;15.70;12.00;;;12.30;76.40;;;;;;5112089;28;20702;-85
2022/04/13 00:16:00;;;;;;;14.73;9.13;;;12.30;76.50;;;;;;5111571;28;20713;-86
2022/04/13 00:18:28;;;;;;;12.37;8.70;;;12.30;76.40;;;;;;5112213;28;20617;-85
2022/04/13 00:20:55;;;;;;;14.17;9.30;;;12.30;76.20;;;;;;5112028;28;20626;-85
2022/04/13 00:23:23;;;;;;;11.30;9.03;;;12.40;91.00;;;;;;5111038;28;20644;-85
2022/04/13 00:25:51;;;;;;;11.57;8.57;;;12.30;76.70;;;;;;5110979;28;20615;-85
2022/04/13 00:28:18;;;;;;;9.13;7.97;;;12.20;76.40;;;;;;5111670;28;20700;-84
2022/04/13 00:30:46;;;;;;;13.83;8.43;;;12.20;91.50;;;;;;5111784;28;21133;-84
2022/04/13 00:33:13;;;;;;;14.03;8.00;;;12.20;78.70;;;;;;5112402;28;20611;-85
2022/04/13 00:35:43;;;;;;;9.00;5.83;;;12.10;85.30;;;;;;5112117;28;20617;-85
2022/04/13 00:38:10;;;;;;;7.87;6.57;;;12.00;91.40;;;;;;5111378;28;20714;-85
2022/04/13 00:40:40;;;;;;;7.40;6.47;;;12.00;77.80;;;;;;5111033;28;20612;-85
2022/04/13 00:43:07;;;;;;;6.83;6.00;;;12.00;77.50;;;;;;5110989;28;21318;-85
2022/04/13 00:45:34;;;;;;;7.30;6.50;;;12.00;77.20;;;;;;5110406;28;20635;-84
2022/04/13 00:48:03;;;;;;;8.17;7.07;;;12.00;77.40;;;;;;5111396;28;20599;-85
2022/04/13 00:50:29;;;;;;;7.33;6.17;;;12.10;85.90;;;;;;5110628;27;20639;-85
2022/04/13 00:52:59;;;;;;;9.00;6.83;;;11.80;78.40;;;;;;5111000;27;20714;-85
2022/04/13 00:55:27;;;;;;;7.33;6.20;;;11.80;79.00;;;;;;5110292;28;21020;-85
2022/04/13 00:57:58;;;;;;;5.67;5.20;;;11.80;79.10;;;;;;5110780;28;21052;-85
2022/04/13 01:00:25;;;;;;;6.77;6.03;;;11.80;78.70;;;;;;5110174;28;20984;-84
2022/04/13 01:02:54;;;;;;;6.27;5.67;;;11.70;78.10;;;;;;5110187;28;20662;-85
2022/04/13 01:05:22;;;;;;;10.60;6.23;;;11.70;78.50;;;;;;5110126;28;21022;-84
2022/04/13 01:07:52;;;;;;;8.53;5.50;;;11.70;78.80;;;;;;5110848;28;20911;-84
2022/04/13 01:10:21;;;;;;;10.20;5.30;;;11.70;79.10;;;;;;5110832;28;20660;-84
2022/04/13 01:12:49;;;;;;;7.37;5.03;;;11.60;79.60;;;;;;5110557;28;20620;-85
2022/04/13 01:15:17;;;;;;;7.77;6.20;;;11.60;92.50;;;;;;5109929;28;20623;-85
2022/04/13 01:17:46;;;;;;;6.97;6.03;;;12.10;93.30;;;;;;5110377;28;20600;-85
2022/04/13 01:20:16;;;;;;;7.20;6.50;;;11.60;79.30;;;;;;5110609;28;20718;-85
2022/04/13 01:22:47;;;;;;;6.77;5.77;;;11.60;78.10;;;;;;5110394;28;20603;-85
2022/04/13 01:25:15;;;;;;;6.63;6.03;;;11.50;78.60;;;;;;5109834;28;20615;-85
2022/04/13 01:27:42;;;;;;;7.90;5.27;;;11.50;79.70;;;;;;5110097;28;20667;-85
2022/04/13 01:30:11;;;;;;;6.30;5.70;;;11.30;92.30;;;;;;5109667;27;20603;-85
2022/04/13 01:32:38;;;;;;;5.70;5.20;;;11.30;80.30;;;;;;5110168;28;20610;-85
2022/04/13 01:35:07;;;;;;;5.80;5.30;;;11.30;80.50;;;;;;5109691;28;20769;-85
2022/04/13 01:37:35;;;;;;;7.03;6.33;;;11.30;81.10;;;;;;5109134;28;20600;-85
2022/04/13 01:40:04;;;;;;;6.50;5.83;;;11.20;81.20;;;;;;5110088;28;20607;-84
2022/04/13 01:42:32;;;;;;;8.13;6.07;;;11.10;90.20;;;;;;5109421;28;21189;-85
2022/04/13 01:44:58;;;;;;;5.53;4.90;;;11.00;81.60;;;;;;5110021;28;20767;-85
2022/04/13 01:47:25;;;;;;;8.60;6.10;;;11.10;81.60;;;;;;5109443;28;20603;-85
2022/04/13 01:49:52;;;;;;;7.00;6.30;;;11.10;81.30;;;;;;5109744;28;20628;-85
2022/04/13 01:52:19;;;;;;;7.50;6.80;;;;;;;;;;5109860;28;20755;-85
2022/04/13 01:54:46;;;;;;;8.60;6.20;;;11.10;81.30;;;;;;5109648;28;20669;-84
2022/04/13 01:57:14;;;;;;;7.23;6.50;;;10.60;95.10;;;;;;5108570;28;21158;-84
2022/04/13 01:59:41;;;;;;;8.07;7.07;;;10.90;83.40;;;;;;5109697;28;20615;-85
2022/04/13 02:02:08;;;;;;;8.20;7.07;;;10.90;83.80;;;;;;5109806;28;20724;-85
2022/04/13 02:04:35;;;;;;;7.20;6.30;;;;;;;;;;5109662;28;20706;-85
2022/04/13 02:07:02;;;;;;;9.27;6.90;;;11.40;95.40;;;;;;5108595;28;20619;-84
2022/04/13 02:09:29;;;;;;;11.07;7.67;;;10.90;82.70;;;;;;5109348;28;20727;-85
2022/04/13 02:11:56;;;;;;;6.70;6.10;;;10.90;96.30;;;;;;5109524;28;20949;-85
2022/04/13 02:14:25;;;;;;;7.20;6.50;;;10.80;84.00;;;;;;5109616;28;20633;-84
2022/04/13 02:16:51;;;;;;;7.23;5.50;;;10.80;84.20;;;;;;5108798;28;20676;-85
2022/04/13 02:19:19;;;;;;;7.13;5.60;;;10.70;84.10;;;;;;5109286;28;21001;-85
2022/04/13 02:21:46;;;;;;;8.37;6.43;;;10.70;83.70;;;;;;5109531;28;21011;-85
2022/04/13 02:24:14;;;;;;;10.10;6.67;;;10.50;91.40;;;;;;5108500;28;20628;-84
2022/04/13 02:26:41;;;;;;;8.00;5.93;;;10.80;90.80;;;;;;5108617;28;20817;-84
2022/04/13 02:29:08;;;;;;;6.97;6.20;;;10.50;95.00;;;;;;5109055;28;20611;-84
2022/04/13 02:31:36;;;;;;;5.93;5.43;;;10.50;84.30;;;;;;5108930;28;20611;-84
2022/04/13 02:34:04;;;;;;;6.80;6.20;;;10.40;85.00;;;;;;5109067;28;21295;-84
2022/04/13 02:36:31;;;;;;;6.50;5.00;;;10.40;84.10;;;;;;5107614;28;20621;-84
2022/04/13 02:38:58;;;;;;;9.80;5.90;;;10.40;84.10;;;;;;5108906;28;20615;-85
2022/04/13 02:41:25;;;;;;;7.13;5.53;;;10.40;84.10;;;;;;5109241;28;20629;-85
2022/04/13 02:43:51;;;;;;;7.10;5.77;;;10.30;84.30;;;;;;5108912;28;20715;-85
2022/04/13 02:46:18;;;;;;;5.77;5.13;;;10.30;92.40;;;;;;5108631;28;20639;-85
2022/04/13 02:48:46;;;;;;;9.20;6.20;;;10.20;84.80;;;;;;5109091;28;20628;-84
2022/04/13 02:51:13;;;;;;;6.63;5.93;;;10.00;97.60;;;;;;5108683;28;20616;-85
2022/04/13 02:53:40;;;;;;;10.20;6.50;;;10.40;97.80;;;;;;5108966;28;20746;-85
2022/04/13 02:56:07;;;;;;;9.40;6.23;;;10.20;96.40;;;;;;5108485;28;20647;-84
2022/04/13 02:58:34;;;;;;;6.07;5.30;;;10.20;92.80;;;;;;5109060;28;20635;-84
2022/04/13 03:01:04;;;;;;;8.83;6.73;;;10.30;93.50;;;;;;5108677;28;20620;-85
2022/04/13 03:03:31;;;;;;;8.07;5.83;;;10.00;97.50;;;;;;5108625;28;20643;-85
2022/04/13 03:05:59;;;;;;;7.17;6.30;;;9.60;93.30;;;;;;5107737;28;20638;-84
2022/04/13 03:08:26;;;;;;;8.77;6.40;;;10.00;96.40;;;;;;5108691;28;20653;-85
2022/04/13 03:10:53;;;;;;;7.30;6.60;;;10.40;97.00;;;;;;5109084;28;20759;-85
2022/04/13 03:13:21;;;;;;;6.80;6.10;;;10.20;96.30;;;;;;5108880;28;20970;-85
2022/04/13 03:15:48;;;;;;;11.00;6.70;;;10.20;84.00;;;;;;5108261;28;20730;-85
2022/04/13 03:18:15;;;;;;;10.27;6.17;;;;;;;;;;5108326;28;20607;-85
2022/04/13 03:20:45;;;;;;;6.60;6.00;;;10.00;96.80;;;;;;5108911;28;20619;-85
2022/04/13 03:23:13;;;;;;;6.13;5.53;;;10.20;96.50;;;;;;5108835;28;20665;-85
2022/04/13 03:25:40;;;;;;;8.70;6.07;;;10.20;96.80;;;;;;5108376;28;20659;-86
2022/04/13 03:28:07;;;;;;;6.13;5.63;;;10.10;85.20;;;;;;5108986;28;20620;-85
2022/04/13 03:30:33;;;;;;;7.10;6.47;;;10.00;93.20;;;;;;5109922;28;20664;-84
2022/04/13 03:33:00;;;;;;;7.27;6.57;;;10.00;92.90;;;;;;5108576;28;20612;-85
2022/04/13 03:35:27;;;;;;;7.40;6.73;;;9.70;97.80;;;;;;5107864;28;20634;-85
2022/04/13 03:37:54;;;;;;;6.77;6.10;;;10.00;95.80;;;;;;5107649;28;20708;-85
2022/04/13 03:40:23;;;;;;;8.60;6.93;;;9.90;87.10;;;;;;5108504;28;21232;-85
2022/04/13 03:42:50;;;;;;;7.70;5.90;;;9.70;98.70;;;;;;5111440;28;20632;-84
2022/04/13 03:45:17;;;;;;;6.70;5.67;;;;;;;;;;5111597;28;20650;-85
2022/04/13 03:47:44;;;;;;;6.43;5.70;;;9.80;98.20;;;;;;5111886;28;20618;-85
2022/04/13 03:50:11;;;;;;;9.83;6.03;;;9.70;94.40;;;;;;5112191;28;20715;-85
2022/04/13 03:52:40;;;;;;;5.67;5.07;;;9.50;98.40;;;;;;5112312;28;20709;-85
2022/04/13 03:55:09;;;;;;;9.20;6.40;;;9.50;99.30;;;;;;5111722;28;20677;-85
2022/04/13 03:57:38;;;;;;;7.90;4.70;;;9.60;89.50;;;;;;5112266;28;20697;-85
2022/04/13 04:00:06;;;;;;;6.60;6.00;;;9.60;94.70;;;;;;5111528;28;20627;-85
2022/04/13 04:02:33;;;;;;;8.73;5.10;;;9.50;89.30;;;;;;5111810;28;20633;-86
2022/04/13 04:05:03;;;;;;;6.20;5.60;;;9.40;89.80;;;;;;5111740;28;21123;-85
2022/04/13 04:07:29;;;;;;;6.70;5.30;;;9.50;98.20;;;;;;5112040;28;20615;-85
2022/04/13 04:09:56;;;;;;;5.82;5.28;;;9.50;89.40;;;;;;5111899;28;20723;-85
2022/04/13 04:12:24;;;;;;;6.13;5.53;;;;;;;;;;5111517;28;20206;-85
2022/04/13 04:14:52;;;;;;;6.23;5.63;;;9.20;98.30;;;;;;5111471;28;20976;-85
2022/04/13 04:17:19;;;;;;;7.77;6.53;;;9.30;90.20;;;;;;5111294;28;20670;-85
2022/04/13 04:19:46;;;;;;;6.60;5.68;;;9.30;90.00;;;;;;5111721;28;20655;-85
2022/04/13 04:22:13;;;;;;;6.07;5.47;;;9.30;90.20;;;;;;5111858;28;20230;-85
2022/04/13 04:24:40;;;;;;;8.40;6.23;;;;;;;;;;5111923;28;20661;-85
2022/04/13 04:27:07;;;;;;;6.30;5.70;;;9.40;95.20;;;;;;5110690;28;20702;-85
2022/04/13 04:29:35;;;;;;;6.93;5.07;;;9.20;91.20;;;;;;5111463;27;20650;-85
2022/04/13 04:32:04;;;;;;;6.75;5.82;;;9.10;91.40;;;;;;5111474;27;20702;-85
2022/04/13 04:34:33;;;;;;;6.35;5.78;;;9.10;91.50;;;;;;5111044;28;20696;-85
2022/04/13 04:37:00;;;;;;;7.67;5.97;;;9.20;91.00;;;;;;5110078;28;20204;-85
2022/04/13 04:39:27;;;;;;;5.93;5.33;;;9.30;96.30;;;;;;5111238;28;21213;-85
2022/04/13 04:41:54;;;;;;;6.77;5.40;;;9.20;98.20;;;;;;5110887;28;20612;-85
2022/04/13 04:44:20;;;;;;;10.05;6.40;;;9.20;90.70;;;;;;5111210;28;20755;-85
2022/04/13 04:46:47;;;;;;;8.65;5.13;;;9.50;98.80;;;;;;5110884;28;20289;-85
2022/04/13 04:49:16;;;;;;;6.60;5.90;;;9.20;90.70;;;;;;5111013;27;20293;-85
2022/04/13 04:51:42;;;;;;;11.73;6.70;;;9.10;91.10;;;;;;5111255;28;20291;-85
2022/04/13 04:54:09;;;;;;;6.00;5.40;;;9.10;96.40;;;;;;5110167;28;20198;-85
2022/04/13 04:56:36;;;;;;;10.68;5.35;;;9.20;90.80;;;;;;5110579;28;20740;-85
2022/04/13 04:59:03;;;;;;;6.07;5.47;;;9.10;90.90;;;;;;5110826;28;20218;-85
2022/04/13 05:01:30;;;;;;;6.67;5.33;;;;;;;;;;5110832;28;20737;-85
2022/04/13 05:03:57;;;;;;;8.70;6.53;;;9.10;90.60;;;;;;5110695;28;20620;-85
2022/04/13 05:06:28;;;;;;;6.00;5.50;;;9.20;90.90;;;;;;5110707;28;20718;-85
2022/04/13 05:08:56;;;;;;;9.07;5.63;;;9.20;99.10;;;;;;5110224;28;20224;-85
2022/04/13 05:11:23;;;;;;;11.20;6.60;;;9.20;91.00;;;;;;5111052;28;20616;-85
2022/04/13 05:13:51;;;;;;;10.07;6.40;;;9.20;91.00;;;;;;5110363;28;20620;-86
2022/04/13 05:16:19;;;;;;;12.00;6.77;;;9.20;91.00;;;;;;5110172;28;20619;-85
2022/04/13 05:18:46;;;;;;;18.23;6.60;;;9.20;91.10;;;;;;5110200;27;21233;-85
2022/04/13 05:21:14;;;;;;;13.90;7.97;;;9.30;94.70;;;;;;5110081;28;21029;-85
2022/04/13 05:23:43;;;;;;;21.30;7.30;;;9.30;90.90;;;;;;5110342;28;21218;-84
2022/04/13 05:26:10;;;;;;;24.20;8.10;;;9.40;90.60;;;;;;5109988;28;20659;-84
2022/04/13 05:28:37;;;;;;;16.50;7.80;;;9.50;90.40;;;;;;5110306;27;20201;-84
2022/04/13 05:31:04;;;;;;;15.97;7.73;;;9.50;90.60;;;;;;5110440;28;20623;-84
2022/04/13 05:33:32;;;;;;;14.53;7.60;;;9.60;90.50;;;;;;5110341;28;20710;-84
2022/04/13 05:35:59;;;;;;;16.63;7.63;;;9.60;98.60;;;;;;5109019;28;20627;-84
2022/04/13 05:38:26;;;;;;;18.37;7.47;;;9.70;90.80;;;;;;5109247;28;21073;-84
2022/04/13 05:40:54;;;;;;;9.75;6.43;;;9.80;90.70;;;;;;5110373;28;20734;-84
2022/04/13 05:43:21;;;;;;;7.70;6.50;;;9.90;90.60;;;;;;5110156;28;20202;-84
2022/04/13 05:45:48;;;;;;;9.23;6.83;;;9.70;97.50;;;;;;5109682;28;21064;-84
2022/04/13 05:48:15;;;;;;;7.97;7.27;;;10.10;89.40;;;;;;5110267;28;21253;-84
2022/04/13 05:50:42;;;;;;;8.93;6.73;;;10.20;89.60;;;;;;5109902;28;20622;-84
2022/04/13 05:53:09;;;;;;;12.97;7.30;;;10.20;90.00;;;;;;5110062;28;20661;-84
2022/04/13 05:55:36;;;;;;;8.20;6.40;;;10.20;89.70;;;;;;5109471;28;20711;-84
2022/04/13 05:58:04;;;;;;;8.23;6.90;;;10.30;89.30;;;;;;5109931;28;20669;-84
2022/04/13 06:00:31;;;;;;;9.70;7.90;;;10.40;89.60;;;;;;5110130;28;20612;-84
2022/04/13 06:02:58;;;;;;;12.83;7.90;;;11.10;97.40;;;;;;5109477;28;20615;-84
2022/04/13 06:05:25;;;;;;;13.33;7.00;;;10.50;89.40;;;;;;5107860;28;21343;-84
2022/04/13 06:07:53;;;;;;;13.57;7.83;;;10.60;89.60;;;;;;5109977;28;20728;-84
2022/04/13 06:10:20;;;;;;;10.03;6.50;;;10.70;88.90;;;;;;5110145;28;20730;-84
2022/04/13 06:12:48;;;;;;;9.33;8.43;;;10.80;89.40;;;;;;5109904;28;20615;-84
2022/04/13 06:15:17;;;;;;;7.67;6.87;;;10.90;89.50;;;;;;5109008;28;21201;-84
2022/04/13 06:17:44;;;;;;;7.70;7.10;;;;;;;;;;5109255;28;20722;-84
2022/04/13 06:20:14;;;;;;;10.20;7.03;;;11.10;88.40;;;;;;5109574;28;20676;-84
2022/04/13 06:22:45;;;;;;;18.03;8.83;;;11.10;89.30;;;;;;5109658;28;21383;-84
2022/04/13 06:25:13;;;;;;;10.00;7.03;;;11.20;89.20;;;;;;5109004;28;20646;-84
2022/04/13 06:27:40;;;;;;;7.73;7.10;;;11.30;88.50;;;;;;5109696;27;20608;-84
2022/04/13 06:30:09;;;;;;;15.77;7.90;;;11.40;87.50;;;;;;5109144;28;20616;-84
2022/04/13 06:32:39;;;;;;;9.40;8.07;;;11.50;88.20;;;;;;5110047;28;20644;-83
2022/04/13 06:35:08;;;;;;;10.77;8.30;;;11.60;87.80;;;;;;5108764;28;20716;-84
2022/04/13 06:37:35;;;;;;;9.07;8.33;;;11.80;86.90;;;;;;5107396;28;21246;-83
2022/04/13 06:40:02;;;;;;;9.60;7.60;;;11.90;86.90;;;;;;5109522;28;20635;-84
2022/04/13 06:42:33;;;;;;;9.40;6.90;;;12.00;86.50;;;;;;5109194;28;20668;-84
2022/04/13 06:45:00;;;;;;;9.73;7.43;;;12.10;85.90;;;;;;5109130;28;20667;-84
2022/04/13 06:47:29;;;;;;;8.40;7.60;;;;;;;;;;5108814;28;20612;-84
2022/04/13 06:49:58;;;;;;;8.30;6.70;;;12.20;85.20;;;;;;5109093;28;20977;-83
2022/04/13 06:52:25;;;;;;;8.53;7.13;;;12.30;85.60;;;;;;5108637;28;20719;-83
2022/04/13 06:54:52;;;;;;;9.70;6.23;;;12.40;85.80;;;;;;5108850;28;20682;-84
2022/04/13 06:57:19;;;;;;;9.40;6.80;;;12.60;94.60;;;;;;5107961;28;20701;-84
2022/04/13 06:59:45;;;;;;;8.17;5.90;;;12.70;85.70;;;;;;5108621;28;20656;-84
2022/04/13 07:02:12;;;;;;;7.70;7.10;;;12.80;85.20;;;;;;5108888;28;20633;-84
2022/04/13 07:04:39;;;;;;;6.10;5.50;;;12.90;85.20;;;;;;5108627;28;20657;-84
2022/04/13 07:07:08;;;;;;;7.47;6.77;;;13.00;84.60;;;;;;5107865;28;20668;-83
2022/04/13 07:09:35;;;;;;;7.70;5.93;;;13.10;84.00;;;;;;5108273;28;20680;-85
2022/04/13 07:12:02;;;;;;;12.37;7.20;;;13.20;84.50;;;;;;5109245;28;20606;-84
2022/04/13 07:14:29;;;;;;;7.37;6.47;;;13.30;83.50;;;;;;5108551;28;21011;-84
2022/04/13 07:16:56;;;;;;;7.17;6.47;;;13.40;83.10;;;;;;5111703;28;20679;-84
2022/04/13 07:19:23;;;;;;;6.53;5.93;;;13.50;82.80;;;;;;5113118;28;20672;-84
2022/04/13 07:21:50;;;;;;;7.67;6.20;;;13.60;83.20;;;;;;5112749;28;20623;-84
2022/04/13 07:24:18;;;;;;;8.60;5.90;;;14.00;86.80;;;;;;5112454;28;21226;-84
2022/04/13 07:26:45;;;;;;;11.83;6.03;;;13.80;81.50;;;;;;5112377;27;21006;-84
2022/04/13 07:29:12;;;;;;;13.80;6.40;;;14.00;81.10;;;;;;5112752;28;20635;-85
2022/04/13 07:31:39;;;;;;;7.63;6.40;;;14.10;80.70;;;;;;5112487;28;21188;-84
2022/04/13 07:34:06;;;;;;;11.57;5.73;;;14.20;79.80;;;;;;5112872;28;20973;-84
2022/04/13 07:36:33;;;;;;;7.67;5.73;;;14.40;80.30;;;;;;5110463;28;20617;-85
2022/04/13 07:39:01;;;;;;;6.17;5.67;;;14.50;79.10;;;;;;5112568;28;20626;-84
2022/04/13 07:41:29;;;;;;;14.23;6.13;;;14.60;78.80;;;;;;5112229;27;20988;-84
2022/04/13 07:43:57;;;;;;;13.27;6.93;;;14.80;80.00;;;;;;5112654;28;20645;-84
2022/04/13 07:46:27;;;;;;;7.60;5.33;;;14.90;79.90;;;;;;5111657;28;20663;-84
2022/04/13 07:48:54;;;;;;;7.43;5.97;;;15.00;81.20;;;;;;5112290;28;20669;-84
2022/04/13 07:51:21;;;;;;;5.80;5.20;;;;;;;;;;5111728;27;20749;-84
2022/04/13 07:53:48;;;;;;;6.70;4.80;;;15.20;78.90;;;;;;5112286;28;20608;-85
2022/04/13 07:56:15;;;;;;;8.50;4.93;;;15.90;90.60;;;;;;5111574;28;21163;-84
2022/04/13 07:58:44;;;;;;;10.10;5.30;;;15.50;76.90;;;;;;5112077;28;20686;-84
2022/04/13 08:01:10;;;;;;;4.90;4.30;;;15.60;76.30;;;;;;5111969;28;20610;-85
2022/04/13 08:03:37;;;;;;;5.03;3.50;;;15.10;74.30;;;;;;5111796;28;20645;-84
2022/04/13 08:06:04;;;;;;;7.53;4.70;;;16.00;86.90;;;;;;5111260;28;20740;-85
2022/04/13 08:08:31;;;;;;;8.77;4.17;;;15.90;71.60;;;;;;5111951;27;20719;-84
2022/04/13 08:10:58;;;;;;;5.00;4.50;;;16.10;72.60;;;;;;5112124;28;20676;-85
2022/04/13 08:13:25;;;;;;;10.60;4.43;;;16.20;71.60;;;;;;5111899;28;20611;-84
2022/04/13 08:15:53;;;;;;;5.80;3.40;;;16.80;81.80;;;;;;5110942;28;21089;-85
2022/04/13 08:18:20;;;;;;;5.30;4.30;;;16.40;73.20;;;;;;5111353;28;20746;-84
2022/04/13 08:20:47;;;;;;;6.10;3.07;;;16.30;68.50;;;;;;5111655;27;21205;-84
2022/04/13 08:23:14;;;;;;;5.80;5.17;;;16.50;69.40;;;;;;5111403;28;21233;-85
2022/04/13 08:25:41;;;;;;;2.93;1.60;;;16.60;69.20;;;;;;5110803;28;20654;-85
2022/04/13 08:28:08;;;;;;;6.70;2.13;;;16.80;64.90;;;;;;5110918;28;20604;-84
2022/04/13 08:30:34;;;;;;;6.30;1.97;;;16.90;61.40;;;;;;5111599;28;20642;-85
2022/04/13 08:33:03;;;;;;;3.97;2.40;;;16.90;59.60;;;;;;5110965;28;21217;-85
2022/04/13 08:35:30;;;;;;;2.80;2.37;;;17.10;61.70;;;;;;5111196;28;20663;-84
2022/04/13 08:37:56;;;;;;;2.07;1.87;;;17.20;59.50;;;;;;5109951;28;21034;-84
2022/04/13 08:40:23;;;;;;;2.50;1.43;;;17.30;58.40;;;;;;5111577;28;20638;-84
2022/04/13 08:42:56;;;;;;;2.80;2.03;;;17.40;57.00;;;;;;5111307;28;20655;-84
2022/04/13 08:45:25;;;;;;;2.63;1.53;;;17.30;57.60;;;;;;5110476;28;20687;-85
2022/04/13 08:47:56;;;;;;;5.00;2.30;;;17.40;54.50;;;;;;5111416;27;20608;-85
2022/04/13 08:50:27;;;;;;;2.57;1.63;;;17.40;54.90;;;;;;5111755;28;20627;-84
2022/04/13 08:52:59;;;;;;;3.13;1.73;;;17.40;55.60;;;;;;5111295;28;20626;-85
2022/04/13 08:55:28;;;;;;;4.90;1.70;;;17.60;55.00;;;;;;5111012;28;20650;-85
2022/04/13 08:58:03;;;;;;;1.83;1.50;;;17.50;66.80;;;;;;5111005;28;20684;-84
2022/04/13 09:00:32;;;;;;;4.20;2.07;;;17.70;56.60;;;;;;5111385;28;20627;-85
2022/04/13 09:03:19;;;;;;;5.03;2.37;;;17.80;55.20;;;;;;5111588;28;20628;-85
2022/04/13 09:05:50;;;;;;;3.03;2.07;;;17.70;55.20;;;;;;5110567;28;20639;-84
2022/04/13 09:08:21;;;;;;;2.70;1.90;;;17.80;55.00;;;;;;5110656;28;20693;-84
2022/04/13 09:10:48;;;;;;;3.33;2.57;;;17.90;53.60;;;;;;5111366;28;20722;-84
2022/04/13 09:13:16;;;;;;;2.70;1.60;;;18.00;56.00;;;;;;5111405;28;20639;-84
2022/04/13 09:15:44;;;;;;;2.63;2.30;;;18.10;54.00;;;;;;5111310;28;20747;-85
2022/04/13 09:18:11;;;;;;;4.40;1.90;;;18.10;54.50;;;;;;5112060;28;20740;-84
2022/04/13 09:20:39;;;;;;;2.90;2.20;;;18.30;54.40;;;;;;5110709;28;20688;-84
2022/04/13 09:23:08;;;;;;;2.60;1.77;;;18.40;64.90;;;;;;5110302;28;20630;-84
2022/04/13 09:25:36;;;;;;;3.00;2.27;;;18.60;54.80;;;;;;5109846;28;20639;-84
2022/04/13 09:28:04;;;;;;;4.97;2.00;;;18.70;53.60;;;;;;5110723;27;20623;-85
2022/04/13 09:30:33;;;;;;;4.87;1.80;;;18.60;52.40;;;;;;5110551;28;20703;-85
2022/04/13 09:33:01;;;;;;;4.07;2.23;;;18.60;53.70;;;;;;5110340;27;20618;-84
2022/04/13 09:35:31;;;;;;;2.63;2.33;;;18.70;53.00;;;;;;5109389;28;20615;-84
2022/04/13 09:38:01;;;;;;;6.37;2.40;;;19.00;52.70;;;;;;5108930;28;20608;-84
2022/04/13 09:40:38;;;;;;;2.40;2.00;;;19.10;53.10;;;;;;5109266;28;20638;-84
2022/04/13 09:43:09;;;;;;;2.30;1.60;;;19.20;51.60;;;;;;5110262;28;20622;-84
2022/04/13 09:45:39;;;;;;;6.77;2.20;;;19.20;51.10;;;;;;5109557;28;20623;-85
2022/04/13 09:48:08;;;;;;;3.30;2.47;;;19.30;50.40;;;;;;5109684;28;20634;-85
2022/04/13 09:50:35;;;;;;;10.20;3.00;;;19.30;51.60;;;;;;5110331;28;20621;-85
2022/04/13 09:53:05;;;;;;;2.80;1.80;;;19.30;52.80;;;;;;5110271;28;20684;-84
2022/04/13 09:55:37;;;;;;;9.17;2.50;;;19.30;53.40;;;;;;5109378;28;20631;-84
2022/04/13 09:58:06;;;;;;;3.53;2.83;;;19.40;53.70;;;;;;5110102;28;21231;-84
2022/04/13 10:00:35;;;;;;;8.20;3.87;;;19.90;57.30;;;;;;5109438;28;21080;-84
2022/04/13 10:03:14;;;;;;;4.40;2.87;;;19.60;54.60;;;;;;5109847;28;20657;-84
2022/04/13 10:05:46;;;;;;;5.70;3.37;;;19.70;54.30;;;;;;5109165;28;20647;-84
2022/04/13 10:08:14;;;;;;;7.00;3.60;;;19.70;54.60;;;;;;5109530;28;21185;-84
2022/04/13 10:10:45;;;;;;;6.63;3.63;;;19.80;55.10;;;;;;5109341;28;20608;-84
2022/04/13 10:13:13;;;;;;;7.83;3.80;;;19.80;54.90;;;;;;5109411;28;21090;-84
2022/04/13 10:15:41;;;;;;;5.30;3.43;;;;;;;;;;5109115;28;20727;-84
2022/04/13 10:18:07;;;;;;;7.67;3.70;;;20.00;55.20;;;;;;5109403;28;21254;-84
2022/04/13 10:20:45;;;;;;;3.70;3.30;;;20.10;55.00;;;;;;5109793;28;20733;-84
2022/04/13 10:23:12;;;;;;;7.47;2.67;;;20.20;54.50;;;;;;5109274;28;20620;-83
2022/04/13 10:25:40;;;;;;;3.90;2.90;;;20.10;64.10;;;;;;5108055;28;20629;-85
2022/04/13 10:28:12;;;;;;;4.87;3.47;;;20.00;54.20;;;;;;5109322;28;20620;-84
2022/04/13 10:30:40;;;;;;;3.50;3.07;;;20.20;54.50;;;;;;5109348;28;20619;-84
2022/04/13 10:33:09;;;;;;;2.70;2.50;;;20.30;54.40;;;;;;5109202;28;21074;-84
2022/04/13 10:35:37;;;;;;;3.60;2.67;;;20.40;55.10;;;;;;5108795;28;20651;-84
2022/04/13 10:38:04;;;;;;;2.87;2.60;;;20.60;63.60;;;;;;5107461;28;20643;-84
2022/04/13 10:40:32;;;;;;;5.77;3.07;;;20.50;54.10;;;;;;5109225;28;20611;-84
2022/04/13 10:43:01;;;;;;;5.60;2.77;;;20.60;53.40;;;;;;5108984;28;21248;-85
2022/04/13 10:45:31;;;;;;;5.97;3.10;;;20.80;53.40;;;;;;5108621;28;20620;-84
2022/04/13 10:48:01;;;;;;;6.83;3.33;;;20.70;52.80;;;;;;5108974;28;20750;-83
2022/04/13 10:50:32;;;;;;;3.30;2.80;;;20.70;56.30;;;;;;5108828;28;20722;-84
2022/04/13 10:53:05;;;;;;;5.60;2.80;;;20.90;53.40;;;;;;5109553;28;20672;-84
2022/04/13 10:55:35;;;;;;;3.03;2.47;;;21.40;54.60;;;;;;5108396;28;20623;-84
2022/04/13 10:58:04;;;;;;;4.67;3.30;;;21.10;52.60;;;;;;5108777;28;20649;-84
2022/04/13 11:00:36;;;;;;;3.60;3.30;;;21.30;53.30;;;;;;5109164;28;21054;-84
2022/04/13 11:03:05;;;;;;;5.00;3.13;;;21.40;62.40;;;;;;5108252;28;20759;-85
2022/04/13 11:05:33;;;;;;;4.20;3.00;;;21.60;53.30;;;;;;5108785;28;20714;-84
2022/04/13 11:08:10;;;;;;;3.43;2.90;;;21.50;59.70;;;;;;5109143;28;20663;-84
2022/04/13 11:10:38;;;;;;;4.67;3.10;;;21.60;52.70;;;;;;5108933;28;20639;-84
2022/04/13 11:13:05;;;;;;;6.30;3.00;;;21.80;52.60;;;;;;5108814;28;21241;-84
2022/04/13 11:15:43;;;;;;;4.63;3.07;;;22.10;59.20;;;;;;5107903;28;20626;-84
2022/04/13 11:18:11;;;;;;;5.07;2.87;;;21.90;52.60;;;;;;5109065;28;20638;-84
2022/04/13 11:20:39;;;;;;;7.13;2.93;;;22.00;52.30;;;;;;5109061;28;20620;-84
2022/04/13 11:23:13;;;;;;;6.60;3.87;;;22.10;52.00;;;;;;5108872;28;20620;-84
2022/04/13 11:25:47;;;;;;;6.80;3.27;;;22.40;52.50;;;;;;5108350;28;20695;-85
2022/04/13 11:28:24;;;;;;;6.60;3.70;;;22.50;52.90;;;;;;5109018;28;20766;-84
2022/04/13 11:31:04;;;;;;;4.83;4.10;;;22.60;53.10;;;;;;5109147;28;20615;-83
2022/04/13 11:33:49;;;;;;;5.40;4.00;;;22.90;52.60;;;;;;5108801;28;20718;-84
2022/04/13 11:36:17;;;;;;;5.10;3.50;;;;;;;;;;5107133;28;20623;-84
2022/04/13 11:38:48;;;;;;;5.53;3.40;;;23.20;50.40;;;;;;5108769;28;20624;-84
2022/04/13 11:41:15;;;;;;;3.67;3.43;;;23.30;51.40;;;;;;5108852;28;20677;-84
2022/04/13 11:43:42;;;;;;;6.50;4.30;;;23.50;51.30;;;;;;5108774;28;20624;-84
2022/04/13 11:46:34;;;;;;;4.93;3.10;;;23.50;51.70;;;;;;5108294;28;20646;-84
2022/04/13 11:49:01;;;;;;;6.87;3.07;;;;;;;;;;5108285;28;20626;-85
2022/04/13 11:51:29;;;;;;;5.67;3.30;;;24.40;49.30;;;;;;5108492;28;20619;-84
2022/04/13 11:53:57;;;;;;;5.50;3.27;;;24.30;49.60;;;;;;5108468;28;20616;-84
2022/04/13 11:56:33;;;;;;;3.40;3.20;;;24.60;49.80;;;;;;5108022;28;20676;-84
2022/04/13 11:59:00;;;;;;;5.90;3.10;;;25.20;49.10;;;;;;5108089;28;20627;-84
2022/04/13 12:01:29;;;;;;;4.40;2.90;;;25.80;48.30;;;;;;5107870;28;20710;-85
2022/04/13 12:03:59;;;;;;;4.47;2.73;;;26.30;48.30;;;;;;5111290;28;21326;-85
2022/04/13 12:06:27;;;;;;;3.77;3.27;;;26.50;46.80;;;;;;5111429;28;20647;-85
2022/04/13 12:08:55;;;;;;;4.47;3.23;;;26.90;46.10;;;;;;5111803;28;20627;-85
2022/04/13 12:11:24;;;;;;;3.10;2.80;;;26.10;45.00;;;;;;5112126;28;20615;-84
2022/04/13 12:13:52;;;;;;;5.90;3.23;;;26.00;52.10;;;;;;5111250;28;20623;-85
2022/04/13 12:16:22;;;;;;;3.77;3.00;;;26.10;45.30;;;;;;5111543;28;20624;-85
2022/04/13 12:18:51;;;;;;;4.97;3.70;;;26.00;45.60;;;;;;5111900;28;20611;-85
2022/04/13 12:21:22;;;;;;;4.70;2.47;;;25.50;46.20;;;;;;5111939;28;20624;-85
2022/04/13 12:23:50;;;;;;;5.00;3.80;;;25.50;46.60;;;;;;5111774;28;20616;-85
2022/04/13 12:26:18;;;;;;;3.97;2.93;;;25.40;46.70;;;;;;5110957;28;20655;-84
2022/04/13 12:28:45;;;;;;;3.30;3.00;;;25.20;46.40;;;;;;5111655;28;21121;-85
2022/04/13 12:31:13;;;;;;;6.10;2.93;;;25.00;46.10;;;;;;5111951;28;20621;-85
2022/04/13 12:33:41;;;;;;;3.30;2.67;;;24.60;47.20;;;;;;5111770;28;20726;-85
2022/04/13 12:36:11;;;;;;;6.73;3.20;;;24.20;46.60;;;;;;5111074;28;20694;-85
2022/04/13 12:38:40;;;;;;;5.23;2.63;;;24.00;47.50;;;;;;5110337;28;20974;-84
2022/04/13 12:41:12;;;;;;;3.60;3.10;;;24.10;47.30;;;;;;5111592;28;20632;-85
2022/04/13 12:43:41;;;;;;;6.77;3.13;;;23.60;55.30;;;;;;5111200;28;20630;-84
2022/04/13 12:46:10;;;;;;;4.30;2.40;;;24.30;55.60;;;;;;5110829;28;20620;-84
2022/04/13 12:48:37;;;;;;;2.40;2.20;;;24.50;47.10;;;;;;5111301;28;20651;-85
2022/04/13 12:51:05;;;;;;;3.27;2.40;;;25.50;46.40;;;;;;5111839;28;21416;-85
2022/04/13 12:53:43;;;;;;;3.93;2.73;;;27.60;52.70;;;;;;5111099;28;20664;-84
2022/04/13 12:56:12;;;;;;;3.57;2.70;;;27.60;43.70;;;;;;5110747;28;20980;-85